Time,TemperatureF,DewpointF,PressureIn,WindDirection,WindDirectionDegrees,WindSpeedMPH,WindSpeedGustMPH,Humidity,HourlyPrecipIn,Conditions,Clouds,dailyrainin,SolarRadiationWatts/m^2,SoftwareType,DateUTC
2013-01-31 00:00:00,68.9,64.2,29.40,South,175,16.0,17.0,85,0.04,,,0.00,0,Wunderground v.1.15,2013-01-31 05:00:00,
2013-01-31 00:06:00,68.4,63.7,29.40,WSW,247,18.0,20.0,85,3.69,,,0.00,0,Wunderground v.1.15,2013-01-31 05:06:00,
2013-01-31 00:08:00,67.3,63.0,29.40,SW,233,18.0,20.0,86,7.38,,,0.17,0,Wunderground v.1.15,2013-01-31 05:08:00,
2013-01-31 00:10:00,66.4,62.4,29.40,West,270,18.0,18.0,87,0.77,,,0.23,0,Wunderground v.1.15,2013-01-31 05:10:00,
2013-01-31 00:16:00,64.7,62.3,29.47,WNW,282,15.0,18.0,92,0.69,,,0.29,0,Wunderground v.1.15,2013-01-31 05:16:00,
2013-01-31 00:22:00,63.9,62.1,29.47,West,274,11.0,12.0,94,0.23,,,0.32,0,Wunderground v.1.15,2013-01-31 05:22:00,
2013-01-31 00:28:00,62.9,60.8,29.47,SW,224,12.0,12.0,93,0.11,,,0.33,0,Wunderground v.1.15,2013-01-31 05:28:00,
2013-01-31 00:34:00,61.6,59.6,29.48,WSW,240,13.0,29.0,93,0.07,,,0.33,0,Wunderground v.1.15,2013-01-31 05:34:00,
2013-01-31 00:40:00,60.4,57.1,29.48,SW,232,17.0,33.0,89,0.04,,,0.33,0,Wunderground v.1.15,2013-01-31 05:40:00,
2013-01-31 00:46:00,59.9,56.3,29.49,West,278,18.0,33.0,88,0.00,,,0.33,0,Wunderground v.1.15,2013-01-31 05:46:00,
2013-01-31 00:52:00,59.6,55.1,29.49,WSW,247,18.0,24.0,85,0.00,,,0.33,0,Wunderground v.1.15,2013-01-31 05:52:00,
2013-01-31 00:58:00,59.3,54.8,29.49,WSW,254,14.0,24.0,85,0.00,,,0.33,0,Wunderground v.1.15,2013-01-31 05:58:00,
2013-01-31 01:04:00,58.7,54.2,29.51,West,268,17.0,26.0,85,0.49,,,0.35,0,Wunderground v.1.15,2013-01-31 06:04:00,
2013-01-31 01:10:00,58.0,54.2,29.51,West,277,16.0,16.0,87,0.17,,,0.36,0,Wunderground v.1.15,2013-01-31 06:10:00,
2013-01-31 01:16:00,57.2,54.0,29.51,SW,236,13.0,18.0,89,0.35,,,0.38,0,Wunderground v.1.15,2013-01-31 06:16:00,
2013-01-31 01:22:00,56.6,54.0,29.51,West,272,13.0,13.0,91,0.17,,,0.39,0,Wunderground v.1.15,2013-01-31 06:22:00,
2013-01-31 01:28:00,55.9,53.3,29.51,SW,229,13.0,13.0,91,0.11,,,0.40,0,Wunderground v.1.15,2013-01-31 06:28:00,
2013-01-31 01:34:00,55.4,52.8,29.51,WSW,253,13.0,19.0,91,0.08,,,0.41,0,Wunderground v.1.15,2013-01-31 06:34:00,
2013-01-31 01:40:00,55.0,52.4,29.51,WSW,247,10.0,10.0,91,0.07,,,0.42,0,Wunderground v.1.15,2013-01-31 06:40:00,
2013-01-31 01:46:00,54.7,52.1,29.51,SSW,212,9.0,14.0,91,0.17,,,0.43,0,Wunderground v.1.15,2013-01-31 06:46:00,
2013-01-31 01:52:00,54.2,51.6,29.51,WNW,292,10.0,13.0,91,0.17,,,0.45,0,Wunderground v.1.15,2013-01-31 06:52:00,
2013-01-31 01:58:00,53.9,51.3,29.51,SSW,213,10.0,13.0,91,0.07,,,0.45,0,Wunderground v.1.15,2013-01-31 06:58:00,
2013-01-31 02:04:00,53.5,50.9,29.50,SW,216,11.0,11.0,91,0.04,,,0.45,0,Wunderground v.1.15,2013-01-31 07:04:00,
2013-01-31 02:10:00,53.3,50.7,29.50,SW,233,12.0,12.0,91,0.00,,,0.45,0,Wunderground v.1.15,2013-01-31 07:10:00,
2013-01-31 02:16:00,53.2,50.6,29.51,SW,216,11.0,12.0,91,0.00,,,0.45,0,Wunderground v.1.15,2013-01-31 07:16:00,
2013-01-31 02:22:00,53.1,50.8,29.51,WSW,240,9.0,14.0,92,0.00,,,0.45,0,Wunderground v.1.15,2013-01-31 07:22:00,
2013-01-31 02:28:00,52.9,50.6,29.51,SSW,200,8.0,17.0,92,0.00,,,0.45,0,Wunderground v.1.15,2013-01-31 07:28:00,
2013-01-31 02:34:00,52.8,50.2,29.51,WSW,240,11.0,12.0,91,0.00,,,0.45,0,Wunderground v.1.15,2013-01-31 07:34:00,
2013-01-31 02:40:00,52.8,50.2,29.51,SW,233,11.0,12.0,91,0.00,,,0.46,0,Wunderground v.1.15,2013-01-31 07:40:00,
2013-01-31 02:46:00,52.8,49.9,29.52,SSW,196,9.0,17.0,90,0.00,,,0.46,0,Wunderground v.1.15,2013-01-31 07:46:00,
2013-01-31 02:52:00,52.6,49.4,29.52,WNW,295,10.0,10.0,89,0.00,,,0.46,0,Wunderground v.1.15,2013-01-31 07:52:00,
2013-01-31 02:58:00,52.6,48.8,29.52,WSW,243,14.0,14.0,87,0.00,,,0.46,0,Wunderground v.1.15,2013-01-31 07:58:00,
2013-01-31 03:03:00,52.5,48.4,29.51,WSW,239,13.0,19.0,86,0.00,,,0.46,0,Wunderground v.1.15,2013-01-31 08:03:00,
2013-01-31 03:10:00,52.3,47.9,29.51,SW,234,13.0,13.0,85,0.00,,,0.46,0,Wunderground v.1.15,2013-01-31 08:10:00,
2013-01-31 03:16:00,52.2,47.5,29.52,West,274,13.0,17.0,84,0.00,,,0.46,0,Wunderground v.1.15,2013-01-31 08:16:00,
2013-01-31 03:22:00,52.2,47.5,29.52,WSW,237,13.0,17.0,84,0.00,,,0.46,0,Wunderground v.1.15,2013-01-31 08:22:00,
2013-01-31 03:28:00,52.0,47.0,29.52,SW,234,12.0,19.0,83,0.00,,,0.46,0,Wunderground v.1.15,2013-01-31 08:28:00,
2013-01-31 03:34:00,52.0,46.7,29.53,West,264,13.0,13.0,82,0.00,,,0.46,0,Wunderground v.1.15,2013-01-31 08:34:00,
2013-01-31 03:40:00,52.0,46.7,29.53,WSW,240,13.0,13.0,82,0.00,,,0.46,0,Wunderground v.1.15,2013-01-31 08:40:00,
2013-01-31 03:46:00,52.0,46.3,29.55,SW,233,11.0,14.0,81,0.00,,,0.46,0,Wunderground v.1.15,2013-01-31 08:46:00,
2013-01-31 03:52:00,52.0,46.3,29.55,WSW,251,12.0,20.0,81,0.00,,,0.46,0,Wunderground v.1.15,2013-01-31 08:52:00,
2013-01-31 03:58:00,52.0,46.3,29.55,WNW,282,13.0,20.0,81,0.00,,,0.46,0,Wunderground v.1.15,2013-01-31 08:58:00,
2013-01-31 04:04:00,52.0,46.3,29.55,WSW,241,12.0,21.0,81,0.00,,,0.46,0,Wunderground v.1.15,2013-01-31 09:04:00,
2013-01-31 04:10:00,52.0,46.3,29.55,SW,234,12.0,12.0,81,0.00,,,0.46,0,Wunderground v.1.15,2013-01-31 09:10:00,
2013-01-31 04:16:00,52.0,46.0,29.56,SW,230,11.0,22.0,80,0.00,,,0.46,0,Wunderground v.1.15,2013-01-31 09:16:00,
2013-01-31 04:22:00,52.2,46.2,29.56,WNW,287,13.0,13.0,80,0.00,,,0.46,0,Wunderground v.1.15,2013-01-31 09:22:00,
2013-01-31 04:28:00,52.2,46.2,29.56,WSW,247,12.0,19.0,80,0.00,,,0.46,0,Wunderground v.1.15,2013-01-31 09:28:00,
2013-01-31 04:34:00,52.2,46.2,29.57,West,270,11.0,13.0,80,0.00,,,0.46,0,Wunderground v.1.15,2013-01-31 09:34:00,
2013-01-31 04:40:00,52.2,45.9,29.57,SSW,208,13.0,22.0,79,0.00,,,0.46,0,Wunderground v.1.15,2013-01-31 09:40:00,
2013-01-31 04:46:00,52.2,45.9,29.58,SW,236,12.0,14.0,79,0.00,,,0.46,0,Wunderground v.1.15,2013-01-31 09:46:00,
2013-01-31 04:51:00,52.2,45.9,29.58,West,280,10.0,10.0,79,0.00,,,0.46,0,Wunderground v.1.15,2013-01-31 09:51:00,
2013-01-31 04:58:00,52.2,46.2,29.58,WSW,239,9.0,13.0,80,0.00,,,0.46,0,Wunderground v.1.15,2013-01-31 09:58:00,
2013-01-31 05:04:00,51.9,46.3,29.59,WSW,247,9.0,19.0,81,0.00,,,0.46,0,Wunderground v.1.15,2013-01-31 10:04:00,
2013-01-31 05:10:00,51.6,46.0,29.59,SW,234,9.0,10.0,81,0.00,,,0.46,0,Wunderground v.1.15,2013-01-31 10:10:00,
2013-01-31 05:16:00,51.6,45.6,29.60,WSW,254,8.0,10.0,80,0.00,,,0.46,0,Wunderground v.1.15,2013-01-31 10:16:00,
2013-01-31 05:22:00,51.6,45.6,29.60,West,261,7.0,15.0,80,0.00,,,0.46,0,Wunderground v.1.15,2013-01-31 10:22:00,
2013-01-31 05:28:00,51.7,45.1,29.60,West,263,9.0,16.0,78,0.00,,,0.46,0,Wunderground v.1.15,2013-01-31 10:28:00,
2013-01-31 05:34:00,51.7,44.7,29.61,WSW,254,12.0,24.0,77,0.00,,,0.46,0,Wunderground v.1.15,2013-01-31 10:34:00,
2013-01-31 05:40:00,51.6,44.6,29.61,WSW,250,11.0,14.0,77,0.00,,,0.46,0,Wunderground v.1.15,2013-01-31 10:40:00,
2013-01-31 05:46:00,51.4,43.7,29.62,West,281,10.0,17.0,75,0.00,,,0.46,0,Wunderground v.1.15,2013-01-31 10:46:00,
2013-01-31 05:52:00,51.3,43.3,29.62,WNW,302,9.0,10.0,74,0.00,,,0.46,0,Wunderground v.1.15,2013-01-31 10:52:00,
2013-01-31 05:58:00,51.3,42.2,29.62,West,261,9.0,12.0,71,0.00,,,0.46,0,Wunderground v.1.15,2013-01-31 10:58:00,
2013-01-31 06:03:00,51.3,41.8,29.63,WNW,288,9.0,10.0,70,0.00,,,0.46,0,Wunderground v.1.15,2013-01-31 11:03:00,
2013-01-31 06:10:00,51.0,41.6,29.63,WSW,243,7.0,10.0,70,0.00,,,0.46,0,Wunderground v.1.15,2013-01-31 11:10:00,
2013-01-31 06:16:00,50.8,41.0,29.65,WNW,302,7.0,10.0,69,0.00,,,0.46,0,Wunderground v.1.15,2013-01-31 11:16:00,
2013-01-31 06:21:00,50.7,40.5,29.65,West,268,9.0,12.0,68,0.00,,,0.46,0,Wunderground v.1.15,2013-01-31 11:21:00,
2013-01-31 06:27:00,50.7,40.5,29.65,West,275,9.0,12.0,68,0.00,,,0.46,0,Wunderground v.1.15,2013-01-31 11:27:00,
2013-01-31 06:34:00,50.5,39.9,29.66,WSW,258,7.0,14.0,67,0.00,,,0.46,0,Wunderground v.1.15,2013-01-31 11:34:00,
2013-01-31 06:40:00,50.1,38.4,29.66,WNW,299,11.0,12.0,64,0.00,,,0.46,0,Wunderground v.1.15,2013-01-31 11:40:00,
2013-01-31 06:46:00,49.8,37.3,29.68,WNW,284,11.0,12.0,62,0.00,,,0.46,0,Wunderground v.1.15,2013-01-31 11:46:00,
2013-01-31 06:52:00,49.4,34.8,29.68,WNW,287,9.0,14.0,57,0.00,,,0.46,0,Wunderground v.1.15,2013-01-31 11:52:00,
2013-01-31 06:58:00,49.2,34.2,29.68,NNW,328,11.0,14.0,56,0.00,,,0.46,0,Wunderground v.1.15,2013-01-31 11:58:00,
2013-01-31 07:04:00,49.1,33.6,29.69,WNW,299,11.0,14.0,55,0.00,,,0.46,0,Wunderground v.1.15,2013-01-31 12:04:00,
2013-01-31 07:10:00,48.8,33.8,29.69,North,349,10.0,10.0,56,0.00,,,0.46,0,Wunderground v.1.15,2013-01-31 12:10:00,
2013-01-31 07:16:00,48.5,32.6,29.71,NNW,337,11.0,17.0,54,0.00,,,0.46,5,Wunderground v.1.15,2013-01-31 12:16:00,
2013-01-31 07:21:00,48.3,32.9,29.71,NNW,333,12.0,17.0,55,0.00,,,0.46,7,Wunderground v.1.15,2013-01-31 12:21:00,
2013-01-31 07:28:00,47.9,31.6,29.71,NW,326,10.0,17.0,53,0.00,,,0.46,9,Wunderground v.1.15,2013-01-31 12:28:00,
2013-01-31 07:34:00,47.4,31.6,29.72,NW,316,10.0,17.0,54,0.00,,,0.46,12,Wunderground v.1.15,2013-01-31 12:34:00,
2013-01-31 07:40:00,47.3,31.5,29.72,West,264,10.0,10.0,54,0.00,,,0.46,12,Wunderground v.1.15,2013-01-31 12:40:00,
2013-01-31 07:46:00,47.0,31.7,29.74,WNW,285,11.0,21.0,55,0.00,,,0.46,14,Wunderground v.1.15,2013-01-31 12:46:00,
2013-01-31 07:52:00,46.8,31.5,29.74,NW,315,10.0,12.0,55,0.00,,,0.46,18,Wunderground v.1.15,2013-01-31 12:52:00,
2013-01-31 07:58:00,46.7,30.9,29.74,North,354,8.0,14.0,54,0.00,,,0.46,19,Wunderground v.1.15,2013-01-31 12:58:00,
2013-01-31 08:04:00,46.5,30.7,29.75,West,264,9.0,19.0,54,0.00,,,0.46,30,Wunderground v.1.15,2013-01-31 13:04:00,
2013-01-31 08:10:00,46.7,30.5,29.75,NW,320,8.0,8.0,53,0.00,,,0.46,90,Wunderground v.1.15,2013-01-31 13:10:00,
2013-01-31 08:16:00,47.0,29.8,29.78,West,264,10.0,19.0,51,0.00,,,0.46,165,Wunderground v.1.15,2013-01-31 13:16:00,
2013-01-31 08:22:00,47.0,29.3,29.78,NW,322,13.0,19.0,50,0.00,,,0.46,185,Wunderground v.1.15,2013-01-31 13:22:00,
2013-01-31 08:28:00,47.0,29.8,29.78,NNW,336,12.0,19.0,51,0.00,,,0.46,202,Wunderground v.1.15,2013-01-31 13:28:00,
2013-01-31 08:34:00,47.0,30.7,29.79,NNW,339,10.0,13.0,53,0.00,,,0.46,220,Wunderground v.1.15,2013-01-31 13:34:00,
2013-01-31 08:40:00,47.0,30.7,29.79,NW,322,10.0,14.0,53,0.00,,,0.46,232,Wunderground v.1.15,2013-01-31 13:40:00,
2013-01-31 08:46:00,46.5,29.8,29.79,NNW,328,9.0,10.0,52,0.00,,,0.46,260,Wunderground v.1.15,2013-01-31 13:46:00,
2013-01-31 08:51:00,46.5,29.8,29.79,West,278,9.0,10.0,52,0.00,,,0.46,278,Wunderground v.1.15,2013-01-31 13:51:00,
2013-01-31 08:57:00,46.7,30.5,29.79,NW,306,11.0,15.0,53,0.00,,,0.46,296,Wunderground v.1.15,2013-01-31 13:57:00,
2013-01-31 09:04:00,46.7,30.0,29.81,West,264,12.0,15.0,52,0.00,,,0.46,308,Wunderground v.1.15,2013-01-31 14:04:00,
2013-01-31 09:10:00,46.8,29.6,29.81,WNW,288,9.0,9.0,51,0.00,,,0.46,333,Wunderground v.1.15,2013-01-31 14:10:00,
2013-01-31 09:16:00,47.1,29.4,29.82,West,268,9.0,20.0,50,0.00,,,0.46,350,Wunderground v.1.15,2013-01-31 14:16:00,
2013-01-31 09:22:00,46.8,28.6,29.82,NW,309,10.0,21.0,49,0.00,,,0.46,373,Wunderground v.1.15,2013-01-31 14:22:00,
2013-01-31 09:28:00,46.7,27.5,29.82,NNW,339,12.0,21.0,47,0.00,,,0.46,382,Wunderground v.1.15,2013-01-31 14:28:00,
2013-01-31 09:34:00,46.4,26.2,29.83,NNW,329,12.0,14.0,45,0.00,,,0.46,399,Wunderground v.1.15,2013-01-31 14:34:00,
2013-01-31 09:40:00,46.2,24.9,29.83,NNW,343,14.0,14.0,43,0.00,,,0.46,415,Wunderground v.1.15,2013-01-31 14:40:00,
2013-01-31 09:46:00,46.2,24.9,29.84,WNW,301,13.0,20.0,43,0.00,,,0.46,435,Wunderground v.1.15,2013-01-31 14:46:00,
2013-01-31 09:51:00,46.4,25.1,29.84,NNW,336,13.0,13.0,43,0.00,,,0.46,449,Wunderground v.1.15,2013-01-31 14:51:00,
2013-01-31 09:58:00,47.0,25.6,29.84,West,268,10.0,17.0,43,0.00,,,0.46,459,Wunderground v.1.15,2013-01-31 14:58:00,
2013-01-31 10:04:00,47.4,27.1,29.85,NW,306,10.0,12.0,45,0.00,,,0.46,475,Wunderground v.1.15,2013-01-31 15:04:00,
2013-01-31 10:10:00,47.6,27.3,29.85,NW,315,9.0,12.0,45,0.00,,,0.46,486,Wunderground v.1.15,2013-01-31 15:10:00,
2013-01-31 10:16:00,47.3,26.5,29.86,NNW,344,10.0,14.0,44,0.00,,,0.46,500,Wunderground v.1.15,2013-01-31 15:16:00,
2013-01-31 10:22:00,47.7,26.8,29.86,NW,325,12.0,16.0,44,0.00,,,0.46,516,Wunderground v.1.15,2013-01-31 15:22:00,
2013-01-31 10:28:00,47.4,24.9,29.86,WSW,244,11.0,17.0,41,0.00,,,0.46,528,Wunderground v.1.15,2013-01-31 15:28:00,
2013-01-31 10:34:00,47.6,23.8,29.87,WNW,287,10.0,10.0,39,0.00,,,0.46,540,Wunderground v.1.15,2013-01-31 15:34:00,
2013-01-31 10:40:00,47.3,24.2,29.87,North,354,13.0,13.0,40,0.00,,,0.46,547,Wunderground v.1.15,2013-01-31 15:40:00,
2013-01-31 10:46:00,47.4,24.9,29.87,WNW,287,12.0,14.0,41,0.00,,,0.46,560,Wunderground v.1.15,2013-01-31 15:46:00,
2013-01-31 10:52:00,47.9,26.5,29.87,NW,305,10.0,19.0,43,0.00,,,0.46,567,Wunderground v.1.15,2013-01-31 15:52:00,
2013-01-31 10:58:00,48.0,27.1,29.87,WSW,253,10.0,19.0,44,0.00,,,0.46,579,Wunderground v.1.15,2013-01-31 15:58:00,
2013-01-31 11:04:00,48.8,26.7,29.87,WNW,292,10.0,16.0,42,0.00,,,0.46,588,Wunderground v.1.15,2013-01-31 16:04:00,
2013-01-31 11:10:00,48.0,26.0,29.87,West,272,13.0,16.0,42,0.00,,,0.46,598,Wunderground v.1.15,2013-01-31 16:10:00,
2013-01-31 11:16:00,48.3,25.7,29.88,NNW,342,12.0,16.0,41,0.00,,,0.46,605,Wunderground v.1.15,2013-01-31 16:16:00,
2013-01-31 11:21:00,48.0,23.6,29.88,West,280,12.0,17.0,38,0.00,,,0.46,612,Wunderground v.1.15,2013-01-31 16:21:00,
2013-01-31 11:28:00,48.0,23.6,29.88,NW,322,13.0,17.0,38,0.00,,,0.46,619,Wunderground v.1.15,2013-01-31 16:28:00,
2013-01-31 11:34:00,48.3,23.2,29.88,NNW,329,11.0,20.0,37,0.00,,,0.46,625,Wunderground v.1.15,2013-01-31 16:34:00,
2013-01-31 11:40:00,48.2,23.7,29.88,NNW,333,12.0,20.0,38,0.00,,,0.46,628,Wunderground v.1.15,2013-01-31 16:40:00,
2013-01-31 11:46:00,48.2,22.5,29.88,WNW,284,12.0,13.0,36,0.00,,,0.46,633,Wunderground v.1.15,2013-01-31 16:46:00,
2013-01-31 11:52:00,48.5,24.0,29.88,NNW,346,12.0,12.0,38,0.00,,,0.46,639,Wunderground v.1.15,2013-01-31 16:52:00,
2013-01-31 11:58:00,48.8,23.6,29.88,WNW,292,12.0,13.0,37,0.00,,,0.46,640,Wunderground v.1.15,2013-01-31 16:58:00,
2013-01-31 12:03:00,48.9,21.0,29.88,NW,306,12.0,17.0,33,0.00,,,0.46,646,Wunderground v.1.15,2013-01-31 17:03:00,
2013-01-31 12:10:00,48.5,21.4,29.88,NW,304,11.0,13.0,34,0.00,,,0.46,646,Wunderground v.1.15,2013-01-31 17:10:00,
2013-01-31 12:16:00,48.8,22.3,29.87,WSW,248,10.0,13.0,35,0.00,,,0.46,644,Wunderground v.1.15,2013-01-31 17:16:00,
2013-01-31 12:22:00,49.4,22.2,29.87,North,356,11.0,17.0,34,0.00,,,0.46,648,Wunderground v.1.15,2013-01-31 17:22:00,
2013-01-31 12:28:00,50.1,21.3,29.87,NNW,330,10.0,17.0,32,0.00,,,0.46,651,Wunderground v.1.15,2013-01-31 17:28:00,
2013-01-31 12:34:00,50.4,24.4,29.87,WNW,294,10.0,12.0,36,0.00,,,0.46,649,Wunderground v.1.15,2013-01-31 17:34:00,
2013-01-31 12:40:00,50.1,22.1,29.87,West,267,10.0,10.0,33,0.00,,,0.46,649,Wunderground v.1.15,2013-01-31 17:40:00,
2013-01-31 12:46:00,49.6,20.2,29.87,WSW,246,11.0,12.0,31,0.00,,,0.46,646,Wunderground v.1.15,2013-01-31 17:46:00,
2013-01-31 12:52:00,49.6,21.6,29.87,WSW,253,12.0,17.0,33,0.00,,,0.46,644,Wunderground v.1.15,2013-01-31 17:52:00,
2013-01-31 12:58:00,49.8,21.8,29.87,West,280,12.0,17.0,33,0.00,,,0.46,640,Wunderground v.1.15,2013-01-31 17:58:00,
2013-01-31 13:04:00,49.8,22.5,29.86,NNW,346,10.0,14.0,34,0.00,,,0.46,628,Wunderground v.1.15,2013-01-31 18:04:00,
2013-01-31 13:10:00,49.8,22.5,29.86,North,359,9.0,13.0,34,0.00,,,0.46,621,Wunderground v.1.15,2013-01-31 18:10:00,
2013-01-31 13:16:00,49.6,20.9,29.86,NNW,329,12.0,24.0,32,0.00,,,0.46,621,Wunderground v.1.15,2013-01-31 18:16:00,
2013-01-31 13:22:00,49.6,21.6,29.86,West,263,13.0,18.0,33,0.00,,,0.46,46,Wunderground v.1.15,2013-01-31 18:22:00,
2013-01-31 13:28:00,49.4,22.2,29.86,NW,306,12.0,20.0,34,0.00,,,0.46,171,Wunderground v.1.15,2013-01-31 18:28:00,
2013-01-31 13:34:00,49.6,23.7,29.86,WNW,298,11.0,14.0,36,0.00,,,0.46,44,Wunderground v.1.15,2013-01-31 18:34:00,
2013-01-31 13:40:00,50.2,23.6,29.86,SW,232,9.0,11.0,35,0.00,,,0.46,46,Wunderground v.1.15,2013-01-31 18:40:00,
2013-01-31 13:46:00,50.4,20.9,29.86,WNW,294,11.0,19.0,31,0.00,,,0.46,46,Wunderground v.1.15,2013-01-31 18:46:00,
2013-01-31 13:51:00,49.9,21.2,29.86,WNW,284,12.0,12.0,32,0.00,,,0.46,63,Wunderground v.1.15,2013-01-31 18:51:00,
2013-01-31 13:58:00,50.1,19.8,29.86,West,264,10.0,12.0,30,0.00,,,0.46,84,Wunderground v.1.15,2013-01-31 18:58:00,
2013-01-31 14:04:00,49.9,18.0,29.87,SW,234,13.0,19.0,28,0.00,,,0.46,172,Wunderground v.1.15,2013-01-31 19:04:00,
2013-01-31 14:10:00,50.2,19.1,29.87,SW,222,12.0,12.0,29,0.00,,,0.46,76,Wunderground v.1.15,2013-01-31 19:10:00,
2013-01-31 14:16:00,49.8,17.1,29.88,West,281,11.0,16.0,27,0.00,,,0.46,55,Wunderground v.1.15,2013-01-31 19:16:00,
2013-01-31 14:22:00,49.2,16.6,29.88,NNW,346,14.0,14.0,27,0.00,,,0.46,70,Wunderground v.1.15,2013-01-31 19:22:00,
2013-01-31 14:28:00,49.4,17.6,29.88,NW,326,15.0,15.0,28,0.00,,,0.46,120,Wunderground v.1.15,2013-01-31 19:28:00,
2013-01-31 14:34:00,49.8,18.0,29.88,NW,320,13.0,18.0,28,0.00,,,0.46,215,Wunderground v.1.15,2013-01-31 19:34:00,
2013-01-31 14:40:00,50.4,20.9,29.88,NNW,333,9.0,10.0,31,0.00,,,0.46,125,Wunderground v.1.15,2013-01-31 19:40:00,
2013-01-31 14:46:00,50.8,18.8,29.88,WNW,285,7.0,17.0,28,0.00,,,0.46,487,Wunderground v.1.15,2013-01-31 19:46:00,
2013-01-31 14:52:00,50.1,18.2,29.88,NNW,344,11.0,11.0,28,0.00,,,0.46,470,Wunderground v.1.15,2013-01-31 19:52:00,
2013-01-31 14:58:00,50.2,18.3,29.88,West,268,11.0,16.0,28,0.00,,,0.46,456,Wunderground v.1.15,2013-01-31 19:58:00,
2013-01-31 15:03:00,49.8,18.8,29.89,SW,234,11.0,12.0,29,0.00,,,0.46,442,Wunderground v.1.15,2013-01-31 20:03:00,
2013-01-31 15:10:00,50.1,17.4,29.89,West,277,13.0,13.0,27,0.00,,,0.46,394,Wunderground v.1.15,2013-01-31 20:10:00,
2013-01-31 15:16:00,49.9,18.0,29.90,NW,318,12.0,19.0,28,0.00,,,0.46,373,Wunderground v.1.15,2013-01-31 20:16:00,
2013-01-31 15:22:00,49.8,18.0,29.90,NW,326,11.0,12.0,28,0.00,,,0.46,391,Wunderground v.1.15,2013-01-31 20:22:00,
2013-01-31 15:28:00,49.9,18.0,29.90,WNW,285,11.0,12.0,28,0.00,,,0.46,329,Wunderground v.1.15,2013-01-31 20:28:00,
2013-01-31 15:34:00,49.8,18.0,29.90,NNW,335,11.0,19.0,28,0.00,,,0.46,285,Wunderground v.1.15,2013-01-31 20:34:00,
2013-01-31 15:40:00,49.5,18.5,29.90,WNW,288,11.0,11.0,29,0.00,,,0.46,114,Wunderground v.1.15,2013-01-31 20:40:00,
2013-01-31 15:46:00,49.5,19.3,29.90,WNW,294,11.0,17.0,30,0.00,,,0.46,35,Wunderground v.1.15,2013-01-31 20:46:00,
2013-01-31 15:52:00,49.2,20.6,29.90,NW,316,9.0,14.0,32,0.00,,,0.46,111,Wunderground v.1.15,2013-01-31 20:52:00,
2013-01-31 15:58:00,49.2,19.8,29.90,West,277,10.0,14.0,31,0.00,,,0.46,63,Wunderground v.1.15,2013-01-31 20:58:00,
2013-01-31 16:03:00,49.2,19.0,29.91,WSW,243,12.0,13.0,30,0.00,,,0.46,35,Wunderground v.1.15,2013-01-31 21:03:00,
2013-01-31 16:10:00,49.2,20.6,29.91,NW,320,9.0,9.0,32,0.00,,,0.46,37,Wunderground v.1.15,2013-01-31 21:10:00,
2013-01-31 16:16:00,49.2,19.8,29.92,WNW,301,9.0,14.0,31,0.00,,,0.46,33,Wunderground v.1.15,2013-01-31 21:16:00,
2013-01-31 16:22:00,49.2,19.8,29.92,WNW,291,11.0,12.0,31,0.00,,,0.46,33,Wunderground v.1.15,2013-01-31 21:22:00,
2013-01-31 16:27:00,49.2,20.6,29.92,WNW,284,10.0,20.0,32,0.00,,,0.46,33,Wunderground v.1.15,2013-01-31 21:27:00,
2013-01-31 16:34:00,49.1,20.5,29.93,NW,323,11.0,14.0,32,0.00,,,0.46,37,Wunderground v.1.15,2013-01-31 21:34:00,
2013-01-31 16:40:00,48.9,20.3,29.93,WNW,301,7.0,7.0,32,0.00,,,0.46,37,Wunderground v.1.15,2013-01-31 21:40:00,
2013-01-31 16:45:00,48.8,20.9,29.94,NNW,329,8.0,15.0,33,0.00,,,0.46,28,Wunderground v.1.15,2013-01-31 21:45:00,
2013-01-31 16:52:00,48.5,20.7,29.94,NW,315,8.0,12.0,33,0.00,,,0.46,21,Wunderground v.1.15,2013-01-31 21:52:00,
2013-01-31 16:58:00,48.2,20.4,29.94,North,353,8.0,12.0,33,0.00,,,0.46,26,Wunderground v.1.15,2013-01-31 21:58:00,
2013-01-31 17:03:00,47.9,20.1,29.95,WSW,251,10.0,17.0,33,0.00,,,0.46,26,Wunderground v.1.15,2013-01-31 22:03:00,
2013-01-31 17:10:00,47.7,20.0,29.95,NW,316,9.0,9.0,33,0.00,,,0.46,25,Wunderground v.1.15,2013-01-31 22:10:00,
2013-01-31 17:16:00,47.6,20.6,29.95,NNW,328,10.0,14.0,34,0.00,,,0.46,18,Wunderground v.1.15,2013-01-31 22:16:00,
2013-01-31 17:22:00,47.3,21.0,29.95,WNW,302,10.0,11.0,35,0.00,,,0.46,16,Wunderground v.1.15,2013-01-31 22:22:00,
2013-01-31 17:28:00,47.0,21.4,29.95,WNW,295,8.0,11.0,36,0.00,,,0.46,12,Wunderground v.1.15,2013-01-31 22:28:00,
2013-01-31 17:34:00,46.7,21.1,29.95,WNW,302,7.0,14.0,36,0.00,,,0.46,11,Wunderground v.1.15,2013-01-31 22:34:00,
2013-01-31 17:40:00,46.5,20.9,29.95,WNW,294,8.0,8.0,36,0.00,,,0.46,9,Wunderground v.1.15,2013-01-31 22:40:00,
2013-01-31 17:46:00,46.4,20.9,29.96,NW,308,7.0,14.0,36,0.00,,,0.46,5,Wunderground v.1.15,2013-01-31 22:46:00,
2013-01-31 17:52:00,46.2,20.7,29.96,West,270,7.0,7.0,36,0.00,,,0.46,0,Wunderground v.1.15,2013-01-31 22:52:00,
2013-01-31 17:58:00,46.0,21.8,29.96,West,268,5.0,7.0,38,0.00,,,0.46,0,Wunderground v.1.15,2013-01-31 22:58:00,
2013-01-31 18:04:00,45.7,22.1,29.97,WNW,295,4.0,5.0,39,0.00,,,0.46,0,Wunderground v.1.15,2013-01-31 23:04:00,
2013-01-31 18:10:00,45.4,20.6,29.97,NW,308,4.0,5.0,37,0.00,,,0.46,0,Wunderground v.1.15,2013-01-31 23:10:00,
2013-01-31 18:16:00,45.2,21.1,29.98,West,281,4.0,7.0,38,0.00,,,0.46,0,Wunderground v.1.15,2013-01-31 23:16:00,
2013-01-31 18:22:00,45.2,21.7,29.98,NW,312,4.0,5.0,39,0.00,,,0.46,0,Wunderground v.1.15,2013-01-31 23:22:00,
2013-01-31 18:28:00,44.9,22.0,29.98,WNW,292,3.0,5.0,40,0.00,,,0.46,0,Wunderground v.1.15,2013-01-31 23:28:00,
2013-01-31 18:34:00,44.8,21.3,29.99,NW,323,4.0,7.0,39,0.00,,,0.46,0,Wunderground v.1.15,2013-01-31 23:34:00,
2013-01-31 18:40:00,44.6,21.7,29.99,WNW,284,4.0,5.0,40,0.00,,,0.46,0,Wunderground v.1.15,2013-01-31 23:40:00,
2013-01-31 18:46:00,44.5,22.2,30.00,WNW,301,4.0,6.0,41,0.00,,,0.46,0,Wunderground v.1.15,2013-01-31 23:46:00,
2013-01-31 18:52:00,44.3,22.1,30.00,NW,308,5.0,6.0,41,0.00,,,0.46,0,Wunderground v.1.15,2013-01-31 23:52:00,
2013-01-31 18:58:00,44.3,21.5,30.00,West,275,4.0,6.0,40,0.00,,,0.46,0,Wunderground v.1.15,2013-01-31 23:58:00,
2013-01-31 19:04:00,44.2,22.0,30.01,NNW,333,3.0,4.0,41,0.00,,,0.46,0,Wunderground v.1.15,2013-02-01 00:04:00,
2013-01-31 19:10:00,44.1,21.3,30.01,West,274,4.0,5.0,40,0.00,,,0.46,0,Wunderground v.1.15,2013-02-01 00:10:00,
2013-01-31 19:16:00,43.9,22.3,30.01,NNW,337,4.0,7.0,42,0.00,,,0.46,0,Wunderground v.1.15,2013-02-01 00:16:00,
2013-01-31 19:22:00,43.5,21.9,30.01,NW,306,3.0,3.0,42,0.00,,,0.46,0,Wunderground v.1.15,2013-02-01 00:22:00,
2013-01-31 19:28:00,43.5,21.3,30.01,NW,308,3.0,6.0,41,0.00,,,0.46,0,Wunderground v.1.15,2013-02-01 00:28:00,
2013-01-31 19:33:00,43.3,21.1,30.02,NW,309,5.0,13.0,41,0.00,,,0.46,0,Wunderground v.1.15,2013-02-01 00:33:00,
2013-01-31 19:40:00,43.3,21.1,30.02,NW,325,6.0,6.0,41,0.00,,,0.46,0,Wunderground v.1.15,2013-02-01 00:40:00,
2013-01-31 19:46:00,43.2,21.1,30.03,NW,320,5.0,10.0,41,0.00,,,0.46,0,Wunderground v.1.15,2013-02-01 00:46:00,
2013-01-31 19:51:00,43.2,21.1,30.03,WNW,301,5.0,6.0,41,0.00,,,0.46,0,Wunderground v.1.15,2013-02-01 00:51:00,
2013-01-31 19:58:00,42.9,21.4,30.03,WNW,295,4.0,6.0,42,0.00,,,0.46,0,Wunderground v.1.15,2013-02-01 00:58:00,
2013-01-31 20:04:00,42.6,21.6,30.04,WNW,285,3.0,6.0,43,0.00,,,0.46,0,Wunderground v.1.15,2013-02-01 01:04:00,
2013-01-31 20:10:00,42.3,21.4,30.04,West,271,3.0,3.0,43,0.00,,,0.46,0,Wunderground v.1.15,2013-02-01 01:10:00,
2013-01-31 20:16:00,42.1,21.7,30.04,WNW,298,3.0,6.0,44,0.00,,,0.46,0,Wunderground v.1.15,2013-02-01 01:16:00,
2013-01-31 20:22:00,41.9,21.0,30.04,WNW,298,4.0,12.0,43,0.00,,,0.46,0,Wunderground v.1.15,2013-02-01 01:22:00,
2013-01-31 20:28:00,41.9,21.0,30.04,West,278,3.0,12.0,43,0.00,,,0.46,0,Wunderground v.1.15,2013-02-01 01:28:00,
2013-01-31 20:34:00,41.8,21.5,30.05,WSW,247,3.0,7.0,44,0.00,,,0.46,0,Wunderground v.1.15,2013-02-01 01:34:00,
2013-01-31 20:40:00,41.6,21.8,30.05,WSW,258,3.0,3.0,45,0.00,,,0.46,0,Wunderground v.1.15,2013-02-01 01:40:00,
2013-01-31 20:46:00,41.2,21.4,30.04,West,268,2.0,4.0,45,0.00,,,0.46,0,Wunderground v.1.15,2013-02-01 01:46:00,
2013-01-31 20:51:00,40.9,21.7,30.04,West,268,2.0,3.0,46,0.00,,,0.46,0,Wunderground v.1.15,2013-02-01 01:51:00,
2013-01-31 20:58:00,40.6,21.9,30.04,West,268,1.0,3.0,47,0.00,,,0.46,0,Wunderground v.1.15,2013-02-01 01:58:00,
2013-01-31 21:04:00,40.2,21.6,30.04,West,268,1.0,1.0,47,0.00,,,0.46,0,Wunderground v.1.15,2013-02-01 02:04:00,
2013-01-31 21:10:00,39.9,23.7,30.04,West,268,1.0,1.0,52,0.00,,,0.46,0,Wunderground v.1.15,2013-02-01 02:10:00,
2013-01-31 21:16:00,39.5,23.8,30.04,West,268,1.0,2.0,53,0.00,,,0.46,0,Wunderground v.1.15,2013-02-01 02:16:00,
2013-01-31 21:22:00,39.1,23.8,30.04,West,268,1.0,2.0,54,0.00,,,0.46,0,Wunderground v.1.15,2013-02-01 02:22:00,
2013-01-31 21:28:00,38.6,24.2,30.04,West,268,2.0,2.0,56,0.00,,,0.46,0,Wunderground v.1.15,2013-02-01 02:28:00,
2013-01-31 21:34:00,38.3,23.5,30.05,West,268,2.0,2.0,55,0.00,,,0.46,0,Wunderground v.1.15,2013-02-01 02:34:00,
2013-01-31 21:40:00,37.9,23.2,30.05,West,268,1.0,2.0,55,0.00,,,0.46,0,Wunderground v.1.15,2013-02-01 02:40:00,
2013-01-31 21:46:00,37.8,23.1,30.04,West,268,1.0,2.0,55,0.00,,,0.46,0,Wunderground v.1.15,2013-02-01 02:46:00,
2013-01-31 21:52:00,37.6,23.3,30.04,West,268,1.0,2.0,56,0.00,,,0.46,0,Wunderground v.1.15,2013-02-01 02:52:00,
2013-01-31 21:58:00,37.5,23.6,30.04,West,268,0.0,2.0,57,0.00,,,0.46,0,Wunderground v.1.15,2013-02-01 02:58:00,
2013-01-31 22:04:00,37.2,23.4,30.04,West,268,0.0,0.0,57,0.00,,,0.46,0,Wunderground v.1.15,2013-02-01 03:04:00,
2013-01-31 22:10:00,36.9,24.3,30.04,West,268,0.0,2.0,60,0.00,,,0.46,0,Wunderground v.1.15,2013-02-01 03:10:00,
2013-01-31 22:16:00,36.6,24.0,30.04,West,268,1.0,2.0,60,0.00,,,0.46,0,Wunderground v.1.15,2013-02-01 03:16:00,
2013-01-31 22:22:00,36.3,24.9,30.04,West,268,1.0,2.0,63,0.00,,,0.46,0,Wunderground v.1.15,2013-02-01 03:22:00,
2013-01-31 22:28:00,36.0,25.0,30.04,West,268,0.0,2.0,64,0.00,,,0.46,0,Wunderground v.1.15,2013-02-01 03:28:00,
2013-01-31 22:34:00,35.6,25.0,30.05,West,268,0.0,0.0,65,0.00,,,0.46,0,Wunderground v.1.15,2013-02-01 03:34:00,
2013-01-31 22:40:00,35.2,25.3,30.05,West,268,0.0,0.0,67,0.00,,,0.46,0,Wunderground v.1.15,2013-02-01 03:40:00,
2013-01-31 22:45:00,34.7,25.2,30.05,West,268,0.0,2.0,68,0.00,,,0.46,0,Wunderground v.1.15,2013-02-01 03:45:00,
2013-01-31 22:52:00,34.4,24.9,30.05,West,268,1.0,2.0,68,0.00,,,0.46,0,Wunderground v.1.15,2013-02-01 03:52:00,
2013-01-31 22:58:00,34.3,25.2,30.05,West,268,2.0,2.0,69,0.00,,,0.46,0,Wunderground v.1.15,2013-02-01 03:58:00,
2013-01-31 23:03:00,34.1,25.7,30.05,West,268,1.0,1.0,71,0.00,,,0.46,0,Wunderground v.1.15,2013-02-01 04:03:00,
2013-01-31 23:10:00,33.8,25.4,30.05,West,268,1.0,1.0,71,0.00,,,0.46,0,Wunderground v.1.15,2013-02-01 04:10:00,
2013-01-31 23:16:00,33.5,25.1,30.06,West,268,0.0,2.0,71,0.00,,,0.46,0,Wunderground v.1.15,2013-02-01 04:16:00,
2013-01-31 23:22:00,33.4,24.7,30.06,West,268,0.0,0.0,70,0.00,,,0.46,0,Wunderground v.1.15,2013-02-01 04:22:00,
2013-01-31 23:27:00,33.1,25.1,30.06,West,268,0.0,2.0,72,0.00,,,0.46,0,Wunderground v.1.15,2013-02-01 04:27:00,
2013-01-31 23:34:00,32.9,25.2,30.06,WSW,251,1.0,5.0,73,0.00,,,0.46,0,Wunderground v.1.15,2013-02-01 04:34:00,
2013-01-31 23:40:00,32.8,25.4,30.06,WSW,251,1.0,2.0,74,0.00,,,0.46,0,Wunderground v.1.15,2013-02-01 04:40:00,
2013-01-31 23:45:00,32.7,25.3,30.06,WSW,251,1.0,2.0,74,0.00,,,0.46,0,Wunderground v.1.15,2013-02-01 04:45:00,
2013-01-31 23:52:00,32.4,25.4,30.06,WSW,251,1.0,1.0,75,0.00,,,0.46,0,Wunderground v.1.15,2013-02-01 04:52:00,
2013-01-31 23:58:00,32.2,25.2,30.06,WSW,246,1.0,2.0,75,0.00,,,0.46,0,Wunderground v.1.15,2013-02-01 04:58:00,